createdAt,value
2023-03-20T00:00:02.681Z,100615.66
2023-03-20T00:02:48.769Z,100639.56
2023-03-20T00:05:33.600Z,100668.06
2023-03-20T00:08:18.061Z,100661.31
2023-03-20T00:11:02.011Z,100664.78
2023-03-20T00:13:47.660Z,100670.41
2023-03-20T00:16:34.044Z,100626.22
2023-03-20T00:19:19.670Z,100653.94
2023-03-20T00:22:03.865Z,100613.44
2023-03-20T00:24:47.870Z,100629.25
2023-03-20T00:27:31.841Z,100617.22
2023-03-20T00:30:28.478Z,100650.38
2023-03-20T00:33:12.468Z,100609.44
2023-03-20T00:35:56.635Z,100598.19
2023-03-20T00:38:40.722Z,100645.34
2023-03-20T00:41:28.348Z,100647.44
2023-03-20T00:44:23.546Z,100597.53
2023-03-20T00:47:18.126Z,100596.88
2023-03-20T00:50:03.171Z,100553.75
2023-03-20T00:52:47.998Z,100639.19
2023-03-20T00:55:32.186Z,100644.34
2023-03-20T00:58:16.149Z,100612.63
2023-03-20T01:01:00.231Z,100657.94
2023-03-20T01:03:45.882Z,100649.91
2023-03-20T01:06:33.150Z,100573.84
2023-03-20T01:09:17.246Z,100638.38
2023-03-20T01:12:02.002Z,100591.88
2023-03-20T01:14:47.526Z,100575.75
2023-03-20T01:17:31.520Z,100632.69
2023-03-20T01:20:25.774Z,100625.22
2023-03-20T01:23:09.917Z,100618.75
2023-03-20T01:25:54.061Z,100585.47
2023-03-20T01:28:38.192Z,100598.94
2023-03-20T01:31:22.087Z,100575.56
2023-03-20T01:34:06.416Z,100612.56
2023-03-20T01:36:54.285Z,100534.31
2023-03-20T01:39:38.926Z,100614.94
2023-03-20T01:42:23.252Z,100568.50
2023-03-20T01:45:17.857Z,100575.09
2023-03-20T01:48:02.056Z,100594.75
2023-03-20T01:50:46.235Z,100608.06
2023-03-20T01:53:34.390Z,100567.94
2023-03-20T01:56:21.508Z,100581.53
2023-03-20T01:59:12.027Z,100559.97
2023-03-20T02:01:56.396Z,100538.75
2023-03-20T02:04:46.371Z,100589.47
2023-03-20T02:07:36.326Z,100606.50
2023-03-20T02:10:24.422Z,100598.75
2023-03-20T02:13:24.253Z,100598.88
2023-03-20T02:16:12.567Z,100591.88
2023-03-20T02:19:25.096Z,100557.06
2023-03-20T02:22:27.302Z,100588.13
2023-03-20T02:25:38.819Z,100545.13
2023-03-20T02:28:57.708Z,100533.47
2023-03-20T02:32:23.269Z,100538.06
2023-03-20T02:35:28.118Z,100565.25
2023-03-20T02:38:51.928Z,100585.78
2023-03-20T02:41:43.915Z,100580.63
2023-03-20T02:44:35.027Z,100562.81
2023-03-20T02:47:26.920Z,100581.91
2023-03-20T02:50:17.543Z,100542.28
2023-03-20T02:53:12.963Z,100578.03
2023-03-20T02:56:06.279Z,100575.97
2023-03-20T02:58:59.631Z,100526.59
2023-03-20T03:01:48.955Z,100518.38
2023-03-20T03:04:37.501Z,100523.91
2023-03-20T03:07:23.744Z,100509.59
2023-03-20T03:10:12.884Z,100513.09
2023-03-20T03:12:59.870Z,100556.97
2023-03-20T03:15:49.393Z,100543.28
2023-03-20T03:18:36.245Z,100566.97
2023-03-20T03:21:22.678Z,100570.13
2023-03-20T03:24:08.131Z,100567.66
2023-03-20T03:26:53.792Z,100509.22
2023-03-20T03:29:40.795Z,100564.53
2023-03-20T03:32:30.781Z,100559.56
2023-03-20T03:35:18.697Z,100516.00
2023-03-20T03:38:06.857Z,100567.78
2023-03-20T03:40:57.973Z,100526.03
2023-03-20T03:43:48.447Z,100567.00
2023-03-20T03:46:43.459Z,100531.22
2023-03-20T03:49:34.423Z,100521.84
2023-03-20T03:52:22.702Z,100567.09
2023-03-20T03:55:11.906Z,100540.34
2023-03-20T03:58:20.147Z,100541.38
2023-03-20T04:01:06.669Z,100507.72
2023-03-20T04:03:54.101Z,100553.91
2023-03-20T04:06:39.994Z,100575.31
2023-03-20T04:09:24.261Z,100530.28
2023-03-20T04:12:30.103Z,100537.56
2023-03-20T04:15:16.732Z,100535.09
2023-03-20T04:18:01.190Z,100553.25
2023-03-20T04:20:45.408Z,100518.56
2023-03-20T04:23:30.854Z,100538.91
2023-03-20T04:26:15.094Z,100549.84
2023-03-20T04:28:58.916Z,100483.06
2023-03-20T04:32:06.561Z,100572.34
2023-03-20T04:35:12.039Z,100569.59
2023-03-20T04:38:09.196Z,100580.50
2023-03-20T04:40:54.915Z,100581.22
2023-03-20T04:43:39.496Z,100564.25
2023-03-20T04:46:24.145Z,100543.41
2023-03-20T04:49:08.600Z,100516.09
2023-03-20T04:51:53.018Z,100582.25
2023-03-20T04:54:48.083Z,100570.97
2023-03-20T04:57:33.700Z,100552.41
2023-03-20T05:00:19.111Z,100572.63
2023-03-20T05:03:03.234Z,100543.50
2023-03-20T05:05:47.284Z,100551.53
2023-03-20T05:08:31.594Z,100589.41
2023-03-20T05:11:17.636Z,100573.38
2023-03-20T05:14:23.557Z,100579.50
2023-03-20T05:17:38.813Z,100599.69
2023-03-20T05:20:32.568Z,100581.41
2023-03-20T05:23:23.554Z,100581.19
2023-03-20T05:26:30.464Z,100593.13
2023-03-20T05:29:24.942Z,100558.47
2023-03-20T05:32:32.714Z,100553.41
2023-03-20T05:35:35.619Z,100554.13
2023-03-20T05:38:35.412Z,100590.50
2023-03-20T05:41:37.639Z,100596.78
2023-03-20T05:44:43.161Z,100587.13
2023-03-20T05:47:32.856Z,100601.19
2023-03-20T05:50:55.525Z,100535.78
2023-03-20T05:53:42.567Z,100532.25
2023-03-20T05:56:52.740Z,100596.78
2023-03-20T06:00:01.517Z,100542.66
2023-03-20T06:02:57.849Z,100599.91
2023-03-20T06:06:01.169Z,100556.66
2023-03-20T06:08:45.503Z,100564.03
2023-03-20T06:11:30.143Z,100558.78
2023-03-20T06:14:14.074Z,100596.25
2023-03-20T06:17:02.522Z,100598.28
2023-03-20T06:19:47.870Z,100566.63
2023-03-20T06:22:32.545Z,100604.94
2023-03-20T06:25:16.696Z,100603.13
2023-03-20T06:28:02.102Z,100557.22
2023-03-20T06:30:47.605Z,100565.59
2023-03-20T06:33:38.281Z,100584.63
2023-03-20T06:36:22.195Z,100590.72
2023-03-20T06:39:11.093Z,100532.91
2023-03-20T06:41:56.027Z,100601.25
2023-03-20T06:44:41.957Z,100558.50
2023-03-20T06:47:58.223Z,100550.41
2023-03-20T06:50:43.957Z,100547.66
2023-03-20T06:53:32.270Z,100548.78
2023-03-20T06:56:32.519Z,100606.38
2023-03-20T06:59:17.167Z,100543.25
2023-03-20T07:02:01.736Z,100582.69
2023-03-20T07:04:45.946Z,100563.84
2023-03-20T07:07:31.955Z,100570.59
2023-03-20T07:10:16.044Z,100562.75
2023-03-20T07:13:05.533Z,100596.09
2023-03-20T07:16:03.448Z,100570.47
2023-03-20T07:18:53.584Z,100588.97
2023-03-20T07:21:38.084Z,100593.91
2023-03-20T07:24:24.148Z,100580.03
2023-03-20T07:27:08.263Z,100568.06
2023-03-20T07:29:52.610Z,100611.78
2023-03-20T07:32:37.915Z,100609.81
2023-03-20T07:35:22.338Z,100611.88
2023-03-20T07:38:06.576Z,100619.84
2023-03-20T07:40:56.696Z,100571.63
2023-03-20T07:43:40.758Z,100533.59
2023-03-20T07:46:48.183Z,100570.66
2023-03-20T07:49:33.008Z,100596.91
2023-03-20T07:52:18.324Z,100573.94
2023-03-20T07:55:02.276Z,100549.16
2023-03-20T07:57:49.755Z,100573.03
2023-03-20T08:00:34.912Z,100580.22
2023-03-20T08:03:19.175Z,100578.06
2023-03-20T08:06:04.324Z,100609.97
2023-03-20T08:08:52.035Z,100607.88
2023-03-20T08:11:36.098Z,100532.88
2023-03-20T08:14:21.563Z,100612.09
2023-03-20T08:17:14.511Z,100592.19
2023-03-20T08:20:00.000Z,100608.00
2023-03-20T08:22:46.010Z,100600.47
2023-03-20T08:25:33.628Z,100617.63
2023-03-20T08:28:18.317Z,100605.97
2023-03-20T08:31:04.210Z,100578.06
2023-03-20T08:33:48.868Z,100582.84
2023-03-20T08:36:32.892Z,100584.78
2023-03-20T08:39:17.097Z,100575.06
2023-03-20T08:42:01.409Z,100581.81
2023-03-20T08:44:46.406Z,100625.03
2023-03-20T08:47:31.797Z,100609.69
2023-03-20T08:50:16.411Z,100539.69
2023-03-20T08:53:01.358Z,100612.47
2023-03-20T08:55:49.397Z,100616.59
2023-03-20T08:58:33.521Z,100572.63
2023-03-20T09:01:17.605Z,100586.25
2023-03-20T09:04:03.632Z,100610.94
2023-03-20T09:06:47.671Z,100539.00
2023-03-20T09:09:32.601Z,100603.75
2023-03-20T09:12:17.001Z,100600.94
2023-03-20T09:15:01.474Z,100600.44
2023-03-20T09:17:47.274Z,100564.88
2023-03-20T09:20:33.042Z,100568.84
2023-03-20T09:23:17.658Z,100552.25
2023-03-20T09:26:01.621Z,100594.59
2023-03-20T09:28:45.672Z,100598.00
2023-03-20T09:31:29.898Z,100595.25
2023-03-20T09:34:14.077Z,100586.03
2023-03-20T09:36:59.474Z,100551.03
2023-03-20T09:39:43.511Z,100586.25
2023-03-20T09:42:39.624Z,100561.34
2023-03-20T09:45:36.121Z,100579.19
2023-03-20T09:48:27.399Z,100584.66
2023-03-20T09:51:21.240Z,100543.69
2023-03-20T09:54:12.316Z,100568.56
2023-03-20T09:56:58.191Z,100500.75
2023-03-20T09:59:42.544Z,100472.97
2023-03-20T10:02:38.232Z,100570.75
2023-03-20T10:05:26.316Z,100557.34
2023-03-20T10:08:17.067Z,100544.97
2023-03-20T10:11:16.352Z,100546.91
2023-03-20T10:14:12.409Z,100550.22
2023-03-20T10:17:10.985Z,100485.06
2023-03-20T10:19:59.980Z,100534.97
2023-03-20T10:22:48.838Z,100542.81
2023-03-20T10:25:35.253Z,100534.13
2023-03-20T10:28:26.254Z,100503.38
2023-03-20T10:31:26.781Z,100528.91
2023-03-20T10:34:25.426Z,100522.00
2023-03-20T10:37:25.530Z,100485.34
2023-03-20T10:40:25.005Z,100527.13
2023-03-20T10:43:17.301Z,100532.47
2023-03-20T10:46:08.251Z,100535.50
2023-03-20T10:48:58.546Z,100481.88
2023-03-20T10:51:48.144Z,100512.41
2023-03-20T10:54:35.166Z,100457.78
2023-03-20T10:57:23.455Z,100480.00
2023-03-20T11:00:13.341Z,100480.50
2023-03-20T11:02:58.582Z,100470.00
2023-03-20T11:05:42.586Z,100433.91
2023-03-20T11:08:32.010Z,100429.03
2023-03-20T11:11:22.587Z,100496.41
2023-03-20T11:14:18.781Z,100475.53
2023-03-20T11:17:04.366Z,100486.66
2023-03-20T11:19:52.887Z,100499.91
2023-03-20T11:22:39.157Z,100451.06
2023-03-20T11:25:31.290Z,100488.78
2023-03-20T11:28:26.971Z,100442.72
2023-03-20T11:31:19.041Z,100481.69
2023-03-20T11:34:14.092Z,100478.25
2023-03-20T11:37:16.675Z,100477.88
2023-03-20T11:40:06.804Z,100475.06
2023-03-20T11:42:55.604Z,100465.72
2023-03-20T11:45:41.400Z,100463.22
2023-03-20T11:48:27.254Z,100475.94
2023-03-20T11:51:15.607Z,100468.47
2023-03-20T11:54:04.334Z,100423.06
2023-03-20T11:56:57.001Z,100456.97
2023-03-20T11:59:41.563Z,100414.78
2023-03-20T12:02:27.224Z,100451.41
2023-03-20T12:05:30.457Z,100443.06
2023-03-20T12:08:19.840Z,100442.72
2023-03-20T12:11:17.926Z,100373.50
2023-03-20T12:14:04.755Z,100401.00
2023-03-20T12:16:51.234Z,100399.94
2023-03-20T12:19:36.690Z,100402.72
2023-03-20T12:22:25.519Z,100420.13
2023-03-20T12:25:21.576Z,100419.50
2023-03-20T12:28:13.798Z,100408.19
2023-03-20T12:31:11.269Z,100393.47
2023-03-20T12:34:02.433Z,100415.13
2023-03-20T12:36:48.363Z,100414.94
2023-03-20T12:39:36.621Z,100415.91
2023-03-20T12:42:32.750Z,100387.84
2023-03-20T12:45:22.186Z,100398.28
2023-03-20T12:48:22.662Z,100383.44
2023-03-20T12:51:17.796Z,100399.91
2023-03-20T12:54:16.626Z,100365.09
2023-03-20T12:57:08.140Z,100403.94
2023-03-20T13:00:22.523Z,100395.72
2023-03-20T13:03:29.761Z,100403.69
2023-03-20T13:06:19.714Z,100399.69
2023-03-20T13:09:31.332Z,100396.91
2023-03-20T13:12:28.365Z,100381.91
2023-03-20T13:15:24.678Z,100392.25
2023-03-20T13:18:17.416Z,100393.19
2023-03-20T13:21:09.065Z,100355.75
2023-03-20T13:24:02.021Z,100321.53
2023-03-20T13:26:52.986Z,100386.66
2023-03-20T13:29:48.566Z,100392.34
2023-03-20T13:32:45.246Z,100383.97
2023-03-20T13:35:39.692Z,100349.97
2023-03-20T13:38:26.216Z,100348.69
2023-03-20T13:41:11.884Z,100341.38
2023-03-20T13:44:01.387Z,100389.09
2023-03-20T13:46:50.683Z,100386.69
2023-03-20T13:49:38.896Z,100387.22
2023-03-20T13:52:26.907Z,100372.38
2023-03-20T13:55:23.741Z,100378.28
2023-03-20T13:58:23.148Z,100374.56
2023-03-20T14:01:17.965Z,100334.78
2023-03-20T14:04:04.181Z,100361.28
2023-03-20T14:06:54.760Z,100379.88
2023-03-20T14:09:39.548Z,100373.97
2023-03-20T14:12:26.823Z,100355.78
2023-03-20T14:15:13.886Z,100379.50
2023-03-20T14:17:57.990Z,100355.25
2023-03-20T14:20:43.326Z,100332.47
2023-03-20T14:23:35.844Z,100377.59
2023-03-20T14:26:24.269Z,100373.94
2023-03-20T14:29:32.102Z,100378.56
2023-03-20T14:32:33.821Z,100373.19
2023-03-20T14:35:27.686Z,100365.00
2023-03-20T14:38:22.262Z,100326.81
2023-03-20T14:41:17.034Z,100366.81
2023-03-20T14:44:17.650Z,100327.78
2023-03-20T14:47:11.437Z,100301.84
2023-03-20T14:49:59.900Z,100368.16
2023-03-20T14:52:54.235Z,100289.66
2023-03-20T14:55:59.937Z,100364.00
2023-03-20T14:58:54.788Z,100365.16
2023-03-20T15:01:54.742Z,100317.28
2023-03-20T15:04:40.800Z,100357.50
2023-03-20T15:07:27.933Z,100334.38
2023-03-20T15:10:12.543Z,100351.72
2023-03-20T15:12:58.241Z,100354.69
2023-03-20T15:15:54.591Z,100359.97
2023-03-20T15:18:41.220Z,100326.31
2023-03-20T15:21:31.832Z,100330.81
2023-03-20T15:24:21.650Z,100327.16
2023-03-20T15:27:06.471Z,100371.38
2023-03-20T15:29:53.627Z,100351.19
2023-03-20T15:32:39.367Z,100377.97
2023-03-20T15:35:27.223Z,100344.78
2023-03-20T15:38:16.282Z,100375.66
2023-03-20T15:41:00.445Z,100377.97
2023-03-20T15:43:44.532Z,100298.50
2023-03-20T15:46:28.689Z,100340.28
2023-03-20T15:49:20.137Z,100346.19
2023-03-20T15:52:08.388Z,100349.53
2023-03-20T15:54:52.782Z,100354.97
2023-03-20T15:57:39.809Z,100356.88
2023-03-20T16:00:30.149Z,100340.91
2023-03-20T16:03:19.382Z,100343.03
2023-03-20T16:06:09.570Z,100388.38
2023-03-20T16:09:02.287Z,100341.91
2023-03-20T16:11:48.739Z,100377.44
2023-03-20T16:14:35.217Z,100370.88
2023-03-20T16:17:20.582Z,100380.31
2023-03-20T16:20:05.407Z,100340.41
2023-03-20T16:22:52.531Z,100327.25
2023-03-20T16:25:38.419Z,100369.84
2023-03-20T16:28:22.551Z,100383.34
2023-03-20T16:31:11.063Z,100379.63
2023-03-20T16:33:55.389Z,100332.09
2023-03-20T16:36:40.094Z,100384.03
2023-03-20T16:39:27.621Z,100375.75
2023-03-20T16:42:17.261Z,100391.25
2023-03-20T16:45:01.208Z,100392.59
2023-03-20T16:47:49.250Z,100391.38
2023-03-20T16:50:38.194Z,100333.72
2023-03-20T16:53:23.668Z,100354.66
2023-03-20T16:56:13.337Z,100387.56
2023-03-20T16:58:58.014Z,100392.66
2023-03-20T17:01:44.888Z,100366.59
2023-03-20T17:04:34.874Z,100382.69
2023-03-20T17:07:25.718Z,100402.88
2023-03-20T17:10:21.766Z,100403.97
2023-03-20T17:13:07.773Z,100402.72
2023-03-20T17:15:51.798Z,100403.41
2023-03-20T17:18:37.542Z,100358.06
2023-03-20T17:21:21.625Z,100401.31
2023-03-20T17:24:06.377Z,100395.31
2023-03-20T17:26:54.896Z,100373.31
2023-03-20T17:29:40.691Z,100347.31
2023-03-20T17:32:24.868Z,100389.28
2023-03-20T17:35:09.826Z,100394.00
2023-03-20T17:37:53.960Z,100357.88
2023-03-20T17:40:38.532Z,100383.59
2023-03-20T17:43:22.901Z,100340.41
2023-03-20T17:46:08.926Z,100369.19
2023-03-20T17:48:57.489Z,100351.78
2023-03-20T17:51:41.706Z,100388.72
2023-03-20T17:54:25.785Z,100347.66
2023-03-20T17:57:20.248Z,100380.00
2023-03-20T18:00:06.782Z,100383.88
2023-03-20T18:02:53.607Z,100336.97
2023-03-20T18:05:39.636Z,100377.47
2023-03-20T18:08:24.010Z,100389.53
2023-03-20T18:11:10.153Z,100373.69
2023-03-20T18:13:54.194Z,100342.88
2023-03-20T18:16:38.231Z,100335.72
2023-03-20T18:19:28.505Z,100342.50
2023-03-20T18:22:12.750Z,100372.19
2023-03-20T18:24:56.763Z,100384.09
2023-03-20T18:27:40.926Z,100302.03
2023-03-20T18:30:28.046Z,100388.19
2023-03-20T18:33:12.030Z,100367.63
2023-03-20T18:35:57.397Z,100348.50
2023-03-20T18:38:41.349Z,100343.09
2023-03-20T18:41:25.832Z,100348.44
2023-03-20T18:44:10.090Z,100380.31
2023-03-20T18:46:54.472Z,100358.72
2023-03-20T18:49:38.915Z,100346.78
2023-03-20T18:52:24.641Z,100354.72
2023-03-20T18:55:09.564Z,100386.81
2023-03-20T18:57:54.158Z,100342.72
2023-03-20T19:00:41.127Z,100353.50
2023-03-20T19:03:25.982Z,100345.66
2023-03-20T19:06:15.089Z,100381.47
2023-03-20T19:09:04.169Z,100392.97
2023-03-20T19:11:48.284Z,100344.03
2023-03-20T19:14:32.554Z,100383.03
2023-03-20T19:17:16.924Z,100329.59
2023-03-20T19:20:00.974Z,100324.25
2023-03-20T19:22:45.455Z,100349.22
2023-03-20T19:25:32.249Z,100344.53
2023-03-20T19:28:28.810Z,100365.13
2023-03-20T19:31:19.230Z,100343.34
2023-03-20T19:34:03.687Z,100384.91
2023-03-20T19:36:49.306Z,100370.81
2023-03-20T19:39:33.413Z,100337.84
2023-03-20T19:42:49.654Z,100336.78
2023-03-20T19:45:23.209Z,100364.56
2023-03-20T19:48:15.540Z,100376.16
2023-03-20T19:51:01.508Z,100370.47
2023-03-20T19:53:46.230Z,100328.03
2023-03-20T19:56:30.472Z,100373.63
2023-03-20T19:59:17.028Z,100370.47
2023-03-20T20:02:01.706Z,100339.91
2023-03-20T20:04:45.949Z,100374.22
2023-03-20T20:08:09.197Z,100348.75
2023-03-20T20:10:36.277Z,100385.56
2023-03-20T20:13:22.152Z,100346.00
2023-03-20T20:16:08.016Z,100347.28
2023-03-20T20:18:52.168Z,100345.34
2023-03-20T20:22:19.511Z,100366.97
2023-03-20T20:24:41.714Z,100381.56
2023-03-20T20:27:26.496Z,100374.59
2023-03-20T20:30:13.868Z,100375.34
2023-03-20T20:33:03.467Z,100339.00
2023-03-20T20:36:21.236Z,100335.81
2023-03-20T20:38:54.460Z,100369.00
2023-03-20T20:41:38.695Z,100329.53
2023-03-20T20:44:22.837Z,100326.28
2023-03-20T20:47:07.217Z,100317.28
2023-03-20T20:49:53.010Z,100362.19
2023-03-20T20:52:39.162Z,100370.59
2023-03-20T20:55:25.999Z,100331.75
2023-03-20T20:58:10.190Z,100280.25
2023-03-20T21:00:55.576Z,100323.41
2023-03-20T21:03:40.144Z,100346.38
2023-03-20T21:06:50.593Z,100327.25
2023-03-20T21:09:29.642Z,100307.63
2023-03-20T21:12:30.576Z,100319.31
2023-03-20T21:15:17.927Z,100349.91
2023-03-20T21:18:02.079Z,100316.81
2023-03-20T21:20:46.296Z,100321.63
2023-03-20T21:23:32.097Z,100357.50
2023-03-20T21:26:16.514Z,100354.78
2023-03-20T21:29:00.490Z,100350.66
2023-03-20T21:31:44.577Z,100277.22
2023-03-20T21:34:29.167Z,100355.50
2023-03-20T21:38:17.900Z,100351.78
2023-03-20T21:40:22.059Z,100356.91
2023-03-20T21:43:06.106Z,100310.66
2023-03-20T21:52:54.552Z,100332.16
2023-03-20T21:55:52.328Z,100303.63
2023-03-20T21:58:48.859Z,100330.31
2023-03-20T22:01:49.488Z,100294.63
2023-03-20T22:05:16.284Z,100297.13
2023-03-20T22:14:30.933Z,100279.50
2023-03-20T22:17:40.566Z,100317.44
2023-03-20T22:20:29.808Z,100257.72
2023-03-20T22:42:06.821Z,100320.44
2023-03-20T22:44:59.059Z,100272.44
2023-03-20T22:47:30.693Z,100312.66
2023-03-20T22:50:14.647Z,100268.59
2023-03-20T22:52:58.608Z,100274.16
2023-03-20T22:55:45.162Z,100318.91
2023-03-20T22:58:29.202Z,100315.78
2023-03-20T23:01:14.581Z,100277.47
2023-03-20T23:03:58.678Z,100310.63
2023-03-20T23:06:42.734Z,100299.00
2023-03-20T23:09:26.781Z,100267.41
2023-03-20T23:12:11.123Z,100308.34
2023-03-20T23:14:56.034Z,100251.25
2023-03-20T23:17:41.509Z,100298.03
2023-03-20T23:20:25.683Z,100259.34
2023-03-20T23:23:10.620Z,100291.06
2023-03-20T23:26:03.929Z,100282.47
2023-03-20T23:28:49.139Z,100288.09
2023-03-20T23:31:33.451Z,100240.44
2023-03-20T23:34:18.891Z,100242.78
2023-03-20T23:37:02.768Z,100277.63
2023-03-20T23:39:46.672Z,100212.78
2023-03-20T23:42:31.127Z,100231.47
2023-03-20T23:45:20.371Z,100205.81
2023-03-20T23:48:05.525Z,100231.25
2023-03-20T23:50:53.564Z,100277.50
2023-03-20T23:53:37.764Z,100272.94
2023-03-20T23:56:22.019Z,100234.59
2023-03-20T23:59:18.735Z,100245.84
